< < Back
Terminal Aerodrome Forecast


Current Version              Previous Versions:   1  2  3  4  5  6  7  8  9  

Terminal Aerodrome Forecast

357
FTAK31 PAJN 201100
TAFAHN
TAF
PAHN 201121Z 2012/2112 08010G17KT 6SM -SHRA BR SCT009 BKN018 OVC040
     FM201500 09008KT 6SM -SHRA BKN020 OVC030
     FM202100 12010G15KT P6SM -SHRA SCT015 OVC025
     FM210200 10008KT P6SM -SHRA SCT025 OVC050
     FM210700 VRB05KT P6SM VCSH SCT025 BKN050
      AMD LTD TO CLD VIS AND WIND=

Latest METAR

226
SAUS70 KWBC 201300 RRA
MTRAHN
METAR KAHN 201251Z 00000KT 7SM CLR 09/08 A3013 RMK AO2 SLP203
T00940078


USA.gov is the U.S. government's official web portal to all federal, state and local government web resources and services.